Archival Weather

Fukuoka

Fukuoka, Japan (RJFF)

Report from: Monday, August 15, 2022 1:30 AM JST
Current time: Sunday, February 25, 2024 12:22 AM JST

Current weather – Weather history – Daily summaries
Weather forecast

Temperature28.0°C (82.4°F)
Heat index33.5°C (92.3°F)
Dew point26.0°C (78.8°F)
Winds 8 kts (4.1 m/s, 9.2 mph) Southeast (140°)
Visibility6.2 mi. (10 km)
Clouds Sky clear
Altimeter29.80 in.Hg (1009 mB)
Relative humidity89 %
Density altitude2,087 ft. (636 m)
Remarks Fully automated report
No clouds detected
No significant changes expected in the next two hours
Flight conditions Visual Meteorological Conditions
Raw dataRJFF 141630Z AUTO 14008KT 9999 NCD 28/26 Q1009 NOSIG
An error has occurred. This application may no longer respond until reloaded. Reload 🗙